Nearby METAR Reports

 

KBUF - Buffalo/Cheektow, New York, USA
Distance from station: 0 0mi, 0km
Updated: 06/17/2024 4:54am
Clear
Clear
 Wind from SSW
Wind: SSW 9 mph, 15 km/h
Temperature: 72°F, 22°C
Dew Point: 61°F, 16°C
Humidity: 69%
Barometer: 30.01 inHg, 1016.3 hPa
Clouds: Clear
Visibility: 10 miles, 16 km
2024/06/17 08:54 KBUF 170854Z 20008KT 10SM CLR 22/16 A3001 RMK AO2 SLP156 T02220161 55002
KIAG - Niagara Falls, New York, USA
Distance from station: NW 16mi, 26km
Updated: 06/17/2024 4:53am
Clear
Clear
 Wind from SSW
Wind: SSW 6 mph, 9 km/h
Temperature: 72°F, 22°C
Dew Point: 61°F, 16°C
Humidity: 69%
Barometer: 29.99 inHg, 1015.6 hPa
Clouds: Clear
Visibility: 10 miles, 16 km
2024/06/17 08:53 KIAG 170853Z AUTO 20005KT 10SM CLR 22/16 A2999 RMK AO2 SLP148 T02170161 58003
 
CWPC - Port Colborne(Au, Ontario, Canada
Distance from station: W 27mi, 43km
Updated: 06/17/2024 5:00am

 Wind from SSW
Wind: SSW 17 mph, 28 km/h, Gust: 23 mph, 37 km/h
Temperature: 70°F, 21°C
Dew Point: 63°F, 17°C
Humidity: 78%
2024/06/17 09:00 CWPC 170900Z AUTO 21015G20KT 21/17 RMK AO1 PK WND 20024/0806 SLP168 T02070174 58001
CYSN - St. Catharines A, Ontario, Canada
Distance from station: NW 29mi, 46km
Updated: 06/16/2024 9:00pm
NOT Current
Few Clouds
Few Clouds
 Wind from E
Wind: E 7 mph, 11 km/h
Temperature: 66°F, 19°C
Dew Point: 57°F, 14°C
Humidity: 73%
Barometer: 30.00 inHg, 1015.9 hPa
Clouds: Few Clouds
Visibility: 15 miles, 24 km
Cloud details: Few Clouds 14000 ft
Few Clouds 20000 ft
2024/06/17 01:00 CYSN 170100Z 09006KT 15SM FEW140 FEW200 19/14 A3000 RMK AC1CI1 LAST STFD OBS/NXT 171100Z SLP159 DENSITY ALT 800FT
 
CWWZ - Port Weller (mar, Ontario, Canada
Distance from station: NW 33mi, 53km
Updated: 06/17/2024 5:00am

 Wind from S
Wind: S 6 mph, 9 km/h
Temperature: 61°F, 16°C
Dew Point: 59°F, 15°C
Humidity: 94%
2024/06/17 09:00 CWWZ 170900Z AUTO 17005KT 16/15 RMK AO1 SLP150 T01600150 58006
CXVN - Vineland (au8), Ontario, Canada
Distance from station: WNW 38mi, 61km
Updated: 06/17/2024 5:00am

 Wind from SSE
Wind: SSE 1 mph, 2 km/h
Temperature: 59°F, 15°C
Dew Point: 59°F, 15°C
Humidity: 100%
2024/06/17 09:00 CXVN 170900Z AUTO 16001KT 15/15 RMK AO1 SLP153 T01520146 58006
 
KDKK - Dunkirk, New York, USA
Distance from station: SW 41mi, 66km
Updated: 06/17/2024 4:53am
Clear
Clear
 Wind from S
Wind: S 15 mph, 24 km/h, Gust: 24 mph, 39 km/h
Temperature: 73°F, 23°C
Dew Point: 61°F, 16°C
Humidity: 65%
Barometer: 30.02 inHg, 1016.6 hPa
Clouds: Clear
Visibility: 10 miles, 16 km
2024/06/17 08:53 KDKK 170853Z AUTO 19013G21KT 10SM CLR 23/16 A3002 RMK AO2 SLP160 T02330161 56003
KOLE - Olean, New York, USA
Distance from station: SSE 52mi, 83km
Updated: 06/17/2024 5:15am
Partly cloudy
Partly cloudy
 Wind from S
Wind: S 7 mph, 11 km/h
Temperature: 61°F, 16°C
Dew Point: 57°F, 14°C
Humidity: 88%
Barometer: 30.12 inHg, 1020 hPa
Clouds: Partly cloudy
Visibility: 10 miles, 16 km
Cloud details: Partly cloudy 200 ft
2024/06/17 09:15 KOLE 170915Z AUTO 19006KT 10SM SCT002 16/14 A3012 RMK AO2
 
KROC - Rochester, New York, USA
Distance from station: ENE 55mi, 88km
Updated: 06/17/2024 4:54am
Partly cloudy
Partly cloudy
 Wind from SW
Wind: SW 6 mph, 9 km/h
Temperature: 70°F, 21°C
Dew Point: 59°F, 15°C
Humidity: 69%
Barometer: 30.03 inHg, 1016.9 hPa
Clouds: Partly cloudy
Visibility: 10 miles, 16 km
Cloud details: Few Clouds 8000 ft
Few Clouds 18000 ft
Partly cloudy 25000 ft
2024/06/17 08:54 KROC 170854Z 22005KT 10SM FEW080 FEW180 SCT250 21/15 A3003 RMK AO2 SLP168 T02060150 55003
KDSV - Dansville, New York, USA
Distance from station: ESE 57mi, 92km
Updated: 06/17/2024 4:54am
Clear
Clear
 Wind from SE
Wind: SE 8 mph, 13 km/h
Temperature: 66°F, 19°C
Dew Point: 57°F, 14°C
Humidity: 73%
Barometer: 30.07 inHg, 1018.3 hPa
Clouds: Clear
Visibility: 10 miles, 16 km
2024/06/17 08:54 KDSV 170854Z AUTO 14007KT 10SM CLR 19/14 A3007 RMK AO2 SLP187 T01890139 57003
 
CWWB - Burlington Piers, Ontario, Canada
Distance from station: WNW 59mi, 94km
Updated: 06/17/2024 5:00am

 Wind from SSE
Wind: SSE 3 mph, 6 km/h
Temperature: 63°F, 17°C
2024/06/17 09:00 CWWB 170900Z AUTO 16003KT 17/ RMK AO1 SLP152 T0171 58007
CYTZ - Toronto Il Vor, Ontario, Canada
Distance from station: NW 59mi, 95km
Updated: 06/17/2024 5:00am
Clear
Clear
 Wind from W
Wind: W 3 mph, 6 km/h
Temperature: 55°F, 13°C
Dew Point: 54°F, 12°C
Humidity: 94%
Barometer: 29.97 inHg, 1014.9 hPa
Clouds: Clear
Visibility: 9 miles, 14 km
2024/06/17 09:00 CYTZ 170900Z AUTO 26003KT 230V320 9SM CLR 13/12 A2997 RMK SLP152
 
CXTO - Toronto City, Ontario, Canada
Distance from station: NW 61mi, 98km
Updated: 06/17/2024 5:00am

 
Temperature: 63°F, 17°C
Dew Point: 54°F, 12°C
Humidity: 73%
2024/06/17 09:00 CXTO 170900Z AUTO 17/12 RMK AO1 SLP151 T01700116 55011
KJHW - Jamestown, New York, USA
Distance from station: SSW 62mi, 99km
Updated: 06/17/2024 4:56am
Clear
Clear
 Wind from SSW
Wind: SSW 7 mph, 11 km/h
Temperature: 64°F, 18°C
Dew Point: 63°F, 17°C
Humidity: 94%
Barometer: 30.10 inHg, 1019.3 hPa
Clouds: Clear
Visibility: 10 miles, 16 km
2024/06/17 08:56 KJHW 170856Z AUTO 20006KT 10SM CLR 18/17 A3010 RMK AO2 SLP187 T01830167 51001
 
CYHM - Hamilton Airport, Ontario, Canada
Distance from station: WNW 63mi, 101km
Updated: 06/17/2024 5:00am
Mostly cloudy
Mostly cloudy
 Wind from S
Wind: S 3 mph, 6 km/h
Temperature: 57°F, 14°C
Dew Point: 57°F, 14°C
Humidity: 100%
Barometer: 29.99 inHg, 1015.6 hPa
Clouds: Mostly cloudy
Visibility: 15 miles, 24 km
Cloud details: Mostly cloudy 25000 ft
2024/06/17 09:00 CYHM 170900Z 18003KT 100V200 15SM BKN250 14/14 A2999 RMK CI6 SLP157
CXHM - Hamilton Rbg Cs, Ontario, Canada
Distance from station: WNW 64mi, 102km
Updated: 06/17/2024 5:00am

 Wind from NW
Wind: NW 1 mph, 2 km/h
Temperature: 55°F, 13°C
Dew Point: 54°F, 12°C
Humidity: 94%
2024/06/17 09:00 CXHM 170900Z AUTO 32001KT 13/12 RMK AO1 SLP155 T01290117 58005
 
CYYZ - Toronto/Pearson, Ontario, Canada
Distance from station: NW 67mi, 108km
Updated: 06/17/2024 5:00am
Mostly cloudy
Mostly cloudy
 Wind from SW
Wind: SW 3 mph, 6 km/h
Temperature: 61°F, 16°C
Dew Point: 50°F, 10°C
Humidity: 68%
Barometer: 29.97 inHg, 1014.9 hPa
Clouds: Mostly cloudy
Visibility: 15 miles, 24 km
Cloud details: Few Clouds 8000 ft
Partly cloudy 18000 ft
Mostly cloudy 25000 ft
2024/06/17 09:00 CYYZ 170900Z 22003KT 15SM FEW080 SCT180 BKN250 16/10 A2997 RMK AC1AC2CI3 SLP150 DENSITY ALT 800FT
CYOO - Oshawa, Ontario, Canada
Distance from station: N 68mi, 110km
Updated: 06/17/2024 5:00am
Overcast
Overcast
 Wind from NNE
Wind: NNE 7 mph, 11 km/h
Temperature: 63°F, 17°C
Dew Point: 54°F, 12°C
Humidity: 73%
Barometer: 29.99 inHg, 1015.6 hPa
Clouds: Overcast
Visibility: 9 miles, 14 km
Cloud details: Few Clouds 8100 ft
Partly cloudy 11000 ft
Overcast 17000 ft
2024/06/17 09:00 CYOO 170900Z AUTO 02006KT 360V080 9SM FEW081 SCT110 OVC170 17/12 A2999 RMK LTNG DIST N W NW PRESRR SLP156 DENSITY ALT 800FT
 
KELZ - Wellsville, New York, USA
Distance from station: SE 69mi, 111km
Updated: 06/17/2024 4:56am
Clear
Clear
 Wind from S
Wind: S 7 mph, 11 km/h
Temperature: 64°F, 18°C
Dew Point: 57°F, 14°C
Humidity: 78%
Barometer: 30.14 inHg, 1020.7 hPa
Clouds: Clear
Visibility: 10 miles, 16 km
2024/06/17 08:56 KELZ 170856Z AUTO 18006KT 10SM CLR 18/14 A3014 RMK AO2 SLP194 T01780144 50001
CWNC - Cobourg (mars), Ontario, Canada
Distance from station: NNE 76mi, 122km
Updated: 04/19/2024 7:00pm
NOT Current

 Wind from WSW
Wind: WSW 2 mph, 4 km/h
Temperature: 46°F, 8°C
Dew Point: 37°F, 3°C
Humidity: 71%
2024/04/19 23:00 CWNC 192300Z AUTO 24002KT 08/03 RMK AO1 SLP212 T00810033 56007